Time;durP1;ratioP1;P1;durP2;ratioP2;P2;SDS_P1;SDS_P2;PMS_P1;PMS_P2;Temp;Humidity;BMP_temperature;BMP_pressure;BME280_temperature;BME280_humidity;BME280_pressure;Samples;Min_cycle;Max_cycle;Signal;HPM_P1;HPM_P2
2022/02/25 00:02:28;;;;;;;0.40;0.40;;;;;;;2.10;100.00;98072.00;10367792;28;20049;-65
2022/02/25 00:07:33;;;;;;;0.60;0.60;;;;;;;2.18;100.00;98091.81;10375552;28;20809;-65
2022/02/25 00:12:36;;;;;;;0.77;0.50;;;;;;;2.26;100.00;98082.31;10374954;28;20851;-65
2022/02/25 00:17:39;;;;;;;0.65;0.55;;;;;;;2.28;100.00;98104.31;10355717;28;20129;-65
2022/02/25 00:22:43;;;;;;;0.73;0.60;;;;;;;2.26;100.00;98106.25;10340222;28;20502;-65
2022/02/25 00:27:46;;;;;;;1.23;0.80;;;;;;;2.22;100.00;98093.31;10343208;28;20433;-65
2022/02/25 00:32:49;;;;;;;0.82;0.80;;;;;;;2.14;100.00;98100.06;10352891;28;20507;-66
2022/02/25 00:37:54;;;;;;;3.17;0.90;;;;;;;2.18;100.00;98098.00;10347737;28;20038;-65
2022/02/25 00:42:57;;;;;;;1.10;0.70;;;;;;;2.15;100.00;98107.06;10350643;28;20467;-65
2022/02/25 00:48:00;;;;;;;1.35;0.70;;;;;;;2.16;100.00;98121.19;10348023;28;20046;-65
2022/02/25 00:53:04;;;;;;;0.95;0.85;;;;;;;2.17;100.00;98132.69;10351635;28;20489;-65
2022/02/25 00:58:07;;;;;;;1.33;0.70;;;;;;;2.13;100.00;98121.41;10331377;28;20480;-65
2022/02/25 01:03:10;;;;;;;1.10;0.80;;;;;;;2.13;100.00;98124.94;10353813;28;20475;-65
2022/02/25 01:08:15;;;;;;;0.77;0.75;;;;;;;2.10;100.00;98132.28;10354641;28;20046;-63
2022/02/25 01:13:18;;;;;;;0.70;0.70;;;;;;;2.09;100.00;98136.75;10353381;28;20124;-64
2022/02/25 01:18:21;;;;;;;1.63;0.60;;;;;;;2.19;100.00;98147.56;10357253;28;20069;-65
2022/02/25 01:23:25;;;;;;;2.72;0.90;;;;;;;2.19;100.00;98158.19;10360516;28;20137;-65
2022/02/25 01:28:28;;;;;;;1.85;0.88;;;;;;;2.22;100.00;98160.63;10354785;28;20157;-65
2022/02/25 01:33:32;;;;;;;1.38;1.00;;;;;;;2.20;100.00;98169.63;10362395;28;20160;-64
2022/02/25 01:39:02;;;;;;;2.60;1.00;;;;;;;2.09;100.00;98173.94;10340306;28;20038;-64
2022/02/25 01:44:16;;;;;;;2.13;0.90;;;;;;;2.08;100.00;98180.22;10330366;28;20558;-65
2022/02/25 01:49:22;;;;;;;2.00;1.20;;;;;;;2.03;100.00;98189.50;10328376;28;20046;-65
2022/02/25 01:54:27;;;;;;;2.55;1.13;;;;;;;2.04;100.00;98201.81;10314286;28;20076;-64
2022/02/25 01:59:32;;;;;;;1.88;1.00;;;;;;;1.97;100.00;98206.75;10312631;28;20233;-64
2022/02/25 02:04:36;;;;;;;1.80;0.90;;;;;;;1.91;100.00;98209.84;10335403;28;20566;-65
2022/02/25 02:09:40;;;;;;;1.25;0.90;;;;;;;1.88;100.00;98228.66;10331685;28;20483;-64
2022/02/25 02:14:45;;;;;;;1.15;0.82;;;;;;;1.90;100.00;98208.16;10348698;28;20069;-65
2022/02/25 02:19:48;;;;;;;1.33;0.80;;;;;;;1.85;100.00;98216.47;10338543;28;20045;-64
2022/02/25 02:24:54;;;;;;;1.23;0.90;;;;;;;1.81;100.00;98233.56;10345874;28;20074;-64
2022/02/25 02:29:57;;;;;;;1.17;1.00;;;;;;;1.80;100.00;98251.34;10339795;28;20081;-65
2022/02/25 02:35:00;;;;;;;3.15;1.00;;;;;;;1.79;100.00;98238.13;10323235;28;20754;-65
2022/02/25 02:40:07;;;;;;;1.08;0.73;;;;;;;1.72;100.00;98243.03;10343515;28;20038;-64
2022/02/25 02:45:11;;;;;;;1.00;0.85;;;;;;;1.65;100.00;98271.00;10344534;28;20117;-65
2022/02/25 02:50:14;;;;;;;1.27;0.88;;;;;;;1.53;100.00;98265.59;10342901;28;20121;-65
2022/02/25 02:55:18;;;;;;;1.33;0.63;;;;;;;1.50;100.00;98272.94;10347454;28;20104;-65
2022/02/25 03:00:21;;;;;;;0.85;0.57;;;;;;;1.50;100.00;98287.06;10346519;28;20066;-65
2022/02/25 03:05:24;;;;;;;3.45;0.80;;;;;;;1.51;100.00;98282.59;10351841;28;20471;-65
2022/02/25 03:10:29;;;;;;;1.30;0.70;;;;;;;1.47;100.00;98295.22;10349408;28;20123;-65
2022/02/25 03:15:33;;;;;;;2.35;0.60;;;;;;;1.43;100.00;98299.06;10355551;28;20062;-65
2022/02/25 03:20:36;;;;;;;2.13;0.70;;;;;;;1.40;100.00;98304.59;10348414;28;20130;-65
2022/02/25 03:25:41;;;;;;;1.65;0.60;;;;;;;1.40;100.00;98327.63;10358465;28;20142;-65
2022/02/25 03:30:44;;;;;;;0.90;0.40;;;;;;;1.39;100.00;98316.16;10352289;28;20122;-65
2022/02/25 03:35:47;;;;;;;1.83;0.60;;;;;;;1.36;100.00;98316.34;10329029;28;20047;-65
2022/02/25 03:40:53;;;;;;;0.98;0.52;;;;;;;1.36;100.00;98324.31;10331295;28;20050;-64
2022/02/25 03:45:56;;;;;;;1.48;0.55;;;;;;;1.42;100.00;98325.69;10327207;28;20078;-65
2022/02/25 03:50:59;;;;;;;2.35;0.52;;;;;;;1.37;100.00;98318.06;10308151;28;20077;-65
2022/02/25 03:56:04;;;;;;;2.65;0.60;;;;;;;1.30;100.00;98338.03;10329000;28;20132;-66
2022/02/25 04:01:07;;;;;;;1.35;0.47;;;;;;;1.19;100.00;98336.97;10317292;28;20149;-65
2022/02/25 04:06:10;;;;;;;2.70;0.65;;;;;;;1.22;100.00;98350.03;10332217;28;20057;-66
2022/02/25 04:11:15;;;;;;;0.88;0.40;;;;;;;1.19;100.00;98355.53;10348966;28;20490;-66
2022/02/25 04:16:18;;;;;;;1.30;0.50;;;;;;;1.13;100.00;98363.06;10341226;28;20038;-65
2022/02/25 04:21:21;;;;;;;3.03;0.65;;;;;;;1.13;100.00;98374.50;10324956;28;20121;-65
2022/02/25 04:26:26;;;;;;;2.50;0.60;;;;;;;1.17;100.00;98383.13;10349592;28;20092;-65
2022/02/25 04:31:29;;;;;;;1.67;0.60;;;;;;;1.11;100.00;98386.19;10349135;28;20141;-66
2022/02/25 04:36:33;;;;;;;1.95;0.60;;;;;;;0.99;100.00;98385.22;10332907;28;20061;-65
2022/02/25 04:41:37;;;;;;;1.67;0.80;;;;;;;0.93;100.00;98397.06;10351431;28;20054;-66
2022/02/25 04:46:41;;;;;;;1.40;0.60;;;;;;;0.86;100.00;98388.66;10350575;28;20057;-65
2022/02/25 04:51:44;;;;;;;1.73;0.60;;;;;;;0.82;100.00;98408.38;10350045;28;20034;-66
2022/02/25 04:56:49;;;;;;;2.65;0.70;;;;;;;0.80;100.00;98412.94;10355712;28;20054;-65
2022/02/25 05:01:52;;;;;;;1.85;0.70;;;;;;;0.75;100.00;98417.69;10356931;28;20065;-66
2022/02/25 05:06:56;;;;;;;2.47;0.70;;;;;;;0.74;100.00;98419.47;10356713;28;20046;-66
2022/02/25 05:12:01;;;;;;;2.95;0.73;;;;;;;0.73;100.00;98423.06;10356743;28;20137;-66
2022/02/25 05:22:24;;;;;;;1.38;0.70;;;;;;;0.64;100.00;98439.59;10360172;28;20042;-66
2022/02/25 05:27:29;;;;;;;2.17;0.68;;;;;;;0.61;100.00;98439.78;10359698;28;20081;-65
2022/02/25 05:32:32;;;;;;;2.53;0.63;;;;;;;0.66;100.00;98447.44;10335537;28;20124;-65
2022/02/25 05:37:35;;;;;;;3.35;0.80;;;;;;;0.67;100.00;98442.03;10331175;28;20050;-66
2022/02/25 05:42:41;;;;;;;2.03;0.70;;;;;;;0.53;100.00;98458.81;10326982;28;20034;-64
2022/02/25 05:47:44;;;;;;;1.63;0.90;;;;;;;0.58;100.00;98477.09;10334559;28;20052;-65
2022/02/25 05:52:48;;;;;;;1.42;0.77;;;;;;;0.50;100.00;98480.22;10336352;28;20570;-64
2022/02/25 05:57:54;;;;;;;2.95;0.90;;;;;;;0.54;100.00;98479.06;10335457;28;20065;-64
2022/02/25 06:02:58;;;;;;;4.78;1.05;;;;;;;0.66;100.00;98485.41;10334585;28;20052;-65
2022/02/25 06:08:01;;;;;;;1.58;0.73;;;;;;;0.67;100.00;98487.13;10340361;28;20499;-64
2022/02/25 06:13:07;;;;;;;2.75;0.80;;;;;;;0.59;100.00;98500.84;10337435;28;20053;-64
2022/02/25 06:18:10;;;;;;;2.28;0.73;;;;;;;0.57;100.00;98502.75;10336496;28;20148;-64
2022/02/25 06:23:15;;;;;;;2.10;0.77;;;;;;;0.49;100.00;98513.00;10344914;28;20046;-65
2022/02/25 06:28:19;;;;;;;2.45;1.00;;;;;;;0.51;100.00;98513.75;10346882;28;20137;-63
2022/02/25 06:33:22;;;;;;;3.53;1.05;;;;;;;0.61;100.00;98525.47;10342858;28;20077;-64
2022/02/25 06:38:25;;;;;;;1.65;0.80;;;;;;;0.67;100.00;98533.97;10335353;28;20089;-66
2022/02/25 06:43:30;;;;;;;1.80;0.88;;;;;;;0.69;100.00;98542.69;10347512;28;20042;-65
2022/02/25 06:48:33;;;;;;;3.38;1.00;;;;;;;0.70;100.00;98539.09;10347978;28;20046;-62
2022/02/25 06:53:36;;;;;;;2.55;0.93;;;;;;;0.79;100.00;98527.91;10331469;28;20056;-63
2022/02/25 06:58:40;;;;;;;1.55;1.10;;;;;;;0.86;100.00;98538.97;10346402;28;20105;-63
2022/02/25 07:03:46;;;;;;;2.78;1.10;;;;;;;0.85;100.00;98542.59;10351256;28;20100;-64
2022/02/25 07:08:50;;;;;;;3.78;1.30;;;;;;;0.86;100.00;98544.28;10351301;28;20491;-62
2022/02/25 07:13:54;;;;;;;2.83;0.98;;;;;;;0.86;100.00;98547.81;10355502;28;20579;-61
2022/02/25 07:18:57;;;;;;;5.18;1.00;;;;;;;0.89;100.00;98573.28;10335341;28;20145;-59
2022/02/25 07:24:00;;;;;;;1.85;1.00;;;;;;;0.97;100.00;98573.63;10355444;28;21783;-59
2022/02/25 07:29:09;;;;;;;5.05;1.20;;;;;;;1.03;100.00;98572.41;10347507;28;20129;-60
2022/02/25 07:34:12;;;;;;;2.88;1.10;;;;;;;1.11;100.00;98572.78;10325214;28;20038;-59
2022/02/25 07:39:16;;;;;;;2.00;1.00;;;;;;;1.19;100.00;98573.13;10322641;28;20061;-61
2022/02/25 07:44:21;;;;;;;3.47;1.20;;;;;;;1.27;100.00;98571.78;10315930;28;20061;-60
2022/02/25 07:49:24;;;;;;;3.17;1.02;;;;;;;1.36;100.00;98579.16;10316088;28;20101;-59
2022/02/25 07:54:30;;;;;;;2.33;1.10;;;;;;;1.43;100.00;98583.13;10337076;28;20092;-59
2022/02/25 07:59:35;;;;;;;3.13;1.15;;;;;;;1.50;100.00;98603.00;10339208;28;20152;-57
2022/02/25 08:04:38;;;;;;;5.32;1.15;;;;;;;1.56;100.00;98604.41;10342267;28;20112;-62
2022/02/25 08:10:01;;;;;;;1.58;1.02;;;;;;;1.65;100.00;98581.72;10329306;28;20064;-62
2022/02/25 08:15:15;;;;;;;;;;;;;;;1.78;100.00;98593.25;10342592;28;21405;-61
2022/02/25 08:20:18;;;;;;;3.58;1.02;;;;;;;1.91;100.00;98601.25;10345029;28;20126;-62
2022/02/25 08:25:21;;;;;;;3.03;0.95;;;;;;;2.08;100.00;98602.78;10340917;28;20073;-63
2022/02/25 08:30:26;;;;;;;3.33;1.10;;;;;;;2.21;100.00;98607.25;10339839;28;20050;-61
2022/02/25 08:35:32;;;;;;;2.20;1.10;;;;;;;2.27;100.00;98607.69;10343079;28;20586;-62
2022/02/25 08:40:36;;;;;;;3.83;1.13;;;;;;;2.46;100.00;98604.63;10333712;28;20407;-62
2022/02/25 08:45:41;;;;;;;2.83;0.93;;;;;;;2.56;100.00;98596.88;10352338;28;20037;-62
2022/02/25 08:50:44;;;;;;;4.68;0.98;;;;;;;2.69;100.00;98610.19;10349940;28;20096;-62
2022/02/25 08:55:47;;;;;;;3.72;0.88;;;;;;;2.77;100.00;98610.47;10354578;28;20070;-62
2022/02/25 09:00:52;;;;;;;3.63;1.00;;;;;;;2.95;100.00;98596.84;10354652;28;20049;-62
2022/02/25 09:05:55;;;;;;;2.95;0.93;;;;;;;3.17;100.00;98603.31;10358812;28;20120;-61
2022/02/25 09:10:58;;;;;;;3.78;1.00;;;;;;;3.33;100.00;98605.72;10356739;28;20077;-62
2022/02/25 09:16:04;;;;;;;3.40;1.13;;;;;;;3.42;100.00;98614.84;10357862;28;20038;-61
2022/02/25 09:21:07;;;;;;;4.15;0.90;;;;;;;3.47;100.00;98612.72;10360298;28;20410;-62
2022/02/25 09:26:10;;;;;;;2.53;0.98;;;;;;;3.55;100.00;98607.69;10356425;28;20129;-62
2022/02/25 09:31:14;;;;;;;5.00;1.20;;;;;;;3.57;100.00;98621.75;10330683;28;20046;-61
2022/02/25 09:36:18;;;;;;;3.30;1.00;;;;;;;3.61;100.00;98609.88;10335450;28;20086;-63
2022/02/25 09:41:21;;;;;;;2.20;0.90;;;;;;;3.63;100.00;98613.28;10328094;28;20038;-63
2022/02/25 09:46:28;;;;;;;4.38;1.10;;;;;;;3.75;100.00;98616.88;10317445;28;20150;-62
2022/02/25 09:51:31;;;;;;;3.65;1.20;;;;;;;3.77;100.00;98624.75;10334964;28;20047;-62
2022/02/25 09:56:34;;;;;;;1.63;0.70;;;;;;;3.82;100.00;98622.59;10337283;28;20048;-61
2022/02/25 10:01:39;;;;;;;1.92;1.00;;;;;;;4.00;100.00;98623.03;10336092;28;20046;-62
2022/02/25 10:06:43;;;;;;;3.30;1.02;;;;;;;3.99;100.00;98624.84;10320610;28;20060;-62
2022/02/25 10:12:09;;;;;;;5.00;1.00;;;;;;;4.09;100.00;98634.81;10338954;28;20391;-62
2022/02/25 10:17:16;;;;;;;3.00;0.90;;;;;;;4.27;100.00;98622.78;10339338;28;20505;-62
2022/02/25 10:22:22;;;;;;;2.78;0.90;;;;;;;4.29;100.00;98636.84;10343225;28;20104;-62
2022/02/25 10:27:27;;;;;;;3.10;0.90;;;;;;;4.46;100.00;98642.72;10345104;28;21090;-62
2022/02/25 10:32:38;;;;;;;3.50;0.95;;;;;;;4.35;100.00;98648.03;10344570;28;20048;-62
2022/02/25 10:37:54;;;;;;;2.03;0.90;;;;;;;4.54;100.00;98650.97;10344516;28;20038;-61
2022/02/25 10:42:57;;;;;;;3.35;0.93;;;;;;;4.49;100.00;98642.50;10346931;28;20129;-61
2022/02/25 10:48:06;;;;;;;2.40;0.98;;;;;;;4.82;100.00;98642.69;10349133;28;20038;-62
2022/02/25 10:53:09;;;;;;;3.45;0.93;;;;;;;4.67;100.00;98666.91;10351365;28;20148;-62
2022/02/25 10:58:12;;;;;;;3.63;1.00;;;;;;;4.72;100.00;98651.38;10349575;28;20072;-62
2022/02/25 11:03:31;;;;;;;3.78;1.00;;;;;;;4.69;100.00;98656.13;10353797;28;20534;-61
2022/02/25 11:08:34;;;;;;;3.55;0.88;;;;;;;4.70;100.00;98640.00;10352853;28;20517;-62
2022/02/25 11:13:38;;;;;;;4.40;1.05;;;;;;;4.73;100.00;98638.91;10356505;28;20045;-62
2022/02/25 11:18:45;;;;;;;2.33;0.80;;;;;;;4.59;100.00;98643.47;10354234;28;20124;-61
2022/02/25 11:23:49;;;;;;;3.53;0.90;;;;;;;4.70;100.00;98599.09;10336534;28;20042;-62
2022/02/25 11:28:52;;;;;;;3.25;1.05;;;;;;;4.67;100.00;98612.69;10327055;28;20137;-61
2022/02/25 11:33:56;;;;;;;3.80;0.80;;;;;;;4.68;100.00;98603.72;10333024;28;20042;-61
2022/02/25 11:38:59;;;;;;;4.18;0.90;;;;;;;4.68;100.00;98587.69;10333548;28;20056;-61
2022/02/25 11:44:13;;;;;;;4.03;1.00;;;;;;;4.72;100.00;98595.34;10333420;28;20418;-63
2022/02/25 11:49:23;;;;;;;3.40;1.08;;;;;;;4.86;100.00;98623.66;10337867;28;20627;-63
2022/02/25 11:54:35;;;;;;;5.85;1.00;;;;;;;5.03;100.00;98595.63;10340374;28;20050;-62
2022/02/25 12:00:11;;;;;;;3.28;1.00;;;;;;;5.26;100.00;98598.25;10343701;28;20469;-62
2022/02/25 12:05:17;;;;;;;4.22;0.95;;;;;;;5.11;100.00;98612.84;10331736;28;20418;-62
2022/02/25 12:10:22;;;;;;;2.88;0.90;;;;;;;5.60;100.00;98595.53;10346395;28;20137;-60
2022/02/25 12:15:34;;;;;;;3.45;0.95;;;;;;;5.54;100.00;98596.88;10342206;28;20145;-62
2022/02/25 12:20:44;;;;;;;3.92;0.90;;;;;;;5.74;100.00;98590.88;10340231;28;20053;-60
2022/02/25 12:25:49;;;;;;;3.95;1.08;;;;;;;5.72;100.00;98585.63;10341695;28;20050;-58
2022/02/25 12:30:57;;;;;;;3.33;1.05;;;;;;;5.90;100.00;98583.28;10346162;28;20124;-62
2022/02/25 12:36:04;;;;;;;4.10;1.23;;;;;;;5.83;100.00;98582.94;10342145;28;20034;-57
2022/02/25 12:41:13;;;;;;;4.00;1.20;;;;;;;5.40;100.00;98589.13;10349810;28;20134;-59
2022/02/25 12:46:18;;;;;;;4.28;0.90;;;;;;;5.41;100.00;98588.16;10352248;28;20050;-59
2022/02/25 12:51:24;;;;;;;4.40;1.10;;;;;;;5.34;100.00;98584.28;10353456;28;20078;-54
2022/02/25 12:56:29;;;;;;;5.20;1.23;;;;;;;5.27;100.00;98580.41;10359355;28;20053;-55
2022/02/25 13:01:34;;;;;;;4.35;1.02;;;;;;;5.12;100.00;98591.34;10359758;28;20046;-55
2022/02/25 13:06:40;;;;;;;5.18;1.23;;;;;;;4.98;100.00;98604.97;10361341;28;20033;-58
2022/02/25 13:11:49;;;;;;;3.22;1.02;;;;;;;4.73;100.00;98609.56;10363659;28;20046;-57
2022/02/25 13:17:06;;;;;;;5.13;1.05;;;;;;;4.07;100.00;98623.41;10330422;28;20077;-56
2022/02/25 13:22:15;;;;;;;4.90;1.25;;;;;;;3.64;100.00;98638.13;10328042;28;20113;-57
2022/02/25 13:27:28;;;;;;;6.78;1.42;;;;;;;2.88;100.00;98676.28;10329308;28;20054;-58
2022/02/25 13:32:31;;;;;;;8.55;1.38;;;;;;;2.62;100.00;98692.22;10331475;28;20042;-60
2022/02/25 13:37:49;;;;;;;5.80;1.30;;;;;;;2.43;100.00;98697.06;10321926;28;20151;-57
2022/02/25 13:42:52;;;;;;;5.13;1.40;;;;;;;2.39;100.00;98690.25;10337744;28;20543;-55
2022/02/25 13:53:19;;;;;;;6.80;1.50;;;;;;;2.29;100.00;98703.31;10336961;28;20038;-59
2022/02/25 13:58:22;;;;;;;8.07;1.63;;;;;;;2.29;100.00;98716.63;10340672;28;20046;-59
2022/02/25 14:03:41;;;;;;;7.38;1.55;;;;;;;2.32;100.00;98708.41;10345352;28;20117;-62
2022/02/25 14:08:47;;;;;;;4.00;1.13;;;;;;;2.39;100.00;98704.41;10333485;28;20062;-62
2022/02/25 14:13:51;;;;;;;6.40;1.35;;;;;;;2.48;100.00;98700.25;10349552;28;20546;-59
2022/02/25 14:18:54;;;;;;;4.72;1.20;;;;;;;2.54;100.00;98699.88;10346122;28;20125;-60
2022/02/25 14:24:00;;;;;;;6.00;1.42;;;;;;;2.68;100.00;98696.25;10356654;28;20076;-60
2022/02/25 14:29:15;;;;;;;3.22;1.17;;;;;;;2.78;100.00;98692.00;10364441;28;20396;-59
2022/02/25 14:34:37;;;;;;;4.03;1.25;;;;;;;2.90;100.00;98686.78;10369287;28;20122;-58
2022/02/25 14:39:41;;;;;;;5.72;1.25;;;;;;;3.03;100.00;98678.84;10352323;28;20053;-60
2022/02/25 14:44:45;;;;;;;3.92;1.08;;;;;;;3.17;100.00;98696.50;10380329;28;20455;-58
2022/02/25 14:49:48;;;;;;;4.00;1.10;;;;;;;3.28;100.00;98699.25;10370448;28;20131;-60
2022/02/25 14:54:53;;;;;;;3.55;1.10;;;;;;;3.35;100.00;98700.50;10367966;28;20062;-59
2022/02/25 14:59:57;;;;;;;3.95;0.95;;;;;;;3.45;100.00;98713.19;10359724;28;20115;-58
2022/02/25 15:05:01;;;;;;;3.08;1.00;;;;;;;3.47;100.00;98696.13;10337435;28;20043;-58
2022/02/25 15:10:08;;;;;;;3.20;1.08;;;;;;;3.52;100.00;98699.34;10357333;28;20057;-58
2022/02/25 15:15:13;;;;;;;2.88;0.93;;;;;;;3.61;100.00;98689.81;10374870;28;20128;-58
2022/02/25 15:20:18;;;;;;;3.15;1.10;;;;;;;3.62;100.00;98701.34;10364547;28;20167;-60
2022/02/25 15:25:25;;;;;;;2.25;0.90;;;;;;;3.68;100.00;98701.75;10352927;28;20049;-57
2022/02/25 15:30:30;;;;;;;1.92;0.80;;;;;;;3.68;100.00;98701.75;10345932;28;20149;-58
2022/02/25 15:35:34;;;;;;;3.17;1.00;;;;;;;3.71;100.00;98721.97;10351985;28;20117;-62
2022/02/25 15:40:39;;;;;;;3.28;0.88;;;;;;;3.83;100.00;98730.88;10355567;28;20387;-62
2022/02/25 15:45:42;;;;;;;3.58;1.05;;;;;;;4.12;100.00;98719.94;10361273;28;20044;-59
2022/02/25 15:50:45;;;;;;;4.22;1.25;;;;;;;4.23;100.00;98725.31;10341393;28;20409;-60
2022/02/25 15:55:50;;;;;;;4.03;1.10;;;;;;;4.25;100.00;98728.72;10356939;28;20053;-62
2022/02/25 16:00:54;;;;;;;3.72;1.30;;;;;;;4.28;100.00;98720.50;10353747;28;20479;-61
2022/02/25 16:05:58;;;;;;;3.63;1.00;;;;;;;4.23;100.00;98721.81;10367239;28;20044;-60
2022/02/25 16:11:06;;;;;;;3.53;1.20;;;;;;;4.00;100.00;98746.53;10366375;28;20037;-59
2022/02/25 16:16:10;;;;;;;4.28;1.38;;;;;;;3.89;100.00;98735.78;10381301;28;20045;-60
2022/02/25 16:21:17;;;;;;;5.72;1.48;;;;;;;3.79;100.00;98750.75;10368718;28;20100;-56
2022/02/25 16:26:24;;;;;;;5.53;1.50;;;;;;;3.76;100.00;98753.63;10373219;28;20043;-59
2022/02/25 16:31:27;;;;;;;4.88;1.25;;;;;;;3.67;100.00;98758.66;10363874;28;20052;-59
2022/02/25 16:36:30;;;;;;;5.50;1.50;;;;;;;3.68;100.00;98748.84;10374317;28;20413;-60
2022/02/25 16:41:36;;;;;;;5.88;1.30;;;;;;;3.61;100.00;98758.25;10363947;28;20033;-60
2022/02/25 16:46:39;;;;;;;4.93;1.30;;;;;;;3.59;100.00;98766.31;10344715;28;20120;-59
2022/02/25 16:51:43;;;;;;;4.43;1.30;;;;;;;3.51;100.00;98769.56;10335174;28;20050;-59
2022/02/25 16:56:48;;;;;;;4.53;1.20;;;;;;;3.44;100.00;98780.75;10345474;28;20061;-60
2022/02/25 17:01:51;;;;;;;3.28;1.10;;;;;;;3.49;100.00;98779.47;10338021;28;20060;-56
2022/02/25 17:06:57;;;;;;;5.78;1.30;;;;;;;3.47;100.00;98781.38;10350132;28;20046;-58
2022/02/25 17:12:01;;;;;;;5.47;1.27;;;;;;;3.44;100.00;98797.56;10344610;28;20046;-59
2022/02/25 17:17:04;;;;;;;2.67;1.20;;;;;;;3.47;100.00;98809.84;10342484;28;20400;-55
2022/02/25 17:22:09;;;;;;;3.78;1.20;;;;;;;3.50;100.00;98814.94;10346514;28;20050;-59
2022/02/25 17:27:15;;;;;;;3.85;1.30;;;;;;;3.46;100.00;98829.44;10354097;28;20046;-61
2022/02/25 17:32:20;;;;;;;5.22;1.40;;;;;;;3.42;100.00;98828.78;10364026;28;20047;-58
2022/02/25 17:37:29;;;;;;;4.28;1.40;;;;;;;3.34;100.00;98839.09;10340702;28;20499;-60
2022/02/25 17:42:33;;;;;;;4.38;1.40;;;;;;;3.37;100.00;98841.56;10355829;28;20045;-56
2022/02/25 17:47:36;;;;;;;5.72;1.40;;;;;;;3.35;100.00;98844.31;10357845;28;20034;-60
2022/02/25 17:52:41;;;;;;;6.90;1.45;;;;;;;3.37;100.00;98850.41;10358169;28;20056;-60
2022/02/25 17:57:45;;;;;;;6.22;1.65;;;;;;;3.36;100.00;98880.66;10356460;28;20038;-58
2022/02/25 18:02:48;;;;;;;4.07;1.50;;;;;;;3.42;100.00;98878.53;10335628;28;20138;-60
2022/02/25 18:07:52;;;;;;;4.53;1.40;;;;;;;3.07;100.00;98920.75;10328559;28;20400;-57
2022/02/25 18:12:56;;;;;;;4.50;1.60;;;;;;;2.53;100.00;98920.72;10328350;28;20125;-57
2022/02/25 18:17:59;;;;;;;6.03;1.90;;;;;;;2.38;100.00;98928.72;10335984;28;20542;-57
2022/02/25 18:23:02;;;;;;;6.22;1.90;;;;;;;2.29;100.00;98929.31;10370914;22;20096;-85
2022/02/25 18:28:10;;;;;;;7.63;2.45;;;;;;;2.25;100.00;98933.94;10390377;28;20053;-86
2022/02/25 18:33:14;;;;;;;4.93;1.50;;;;;;;2.21;100.00;98947.53;10379454;28;20062;-86
2022/02/25 18:38:17;;;;;;;5.70;1.90;;;;;;;2.19;100.00;98950.28;10383662;28;20540;-84
2022/02/25 18:43:21;;;;;;;3.65;1.50;;;;;;;2.20;100.00;98961.75;10376437;28;20060;-84
2022/02/25 18:48:24;;;;;;;6.55;1.80;;;;;;;2.22;100.00;98966.06;10396983;28;20386;-83
2022/02/25 18:53:27;;;;;;;3.88;1.55;;;;;;;2.26;100.00;98969.38;10384331;28;20509;-84
2022/02/25 19:05:31;;;;;;;4.47;1.33;;;;;;;2.60;100.00;98972.59;10386454;28;20503;-83
2022/02/25 19:10:42;;;;;;;3.63;1.38;;;;;;;2.65;100.00;98982.94;10380923;28;20050;-82
2022/02/25 19:23:39;;;;;;;2.65;1.30;;;;;;;2.72;100.00;99003.72;10378192;28;20116;-85
2022/02/25 19:28:44;;;;;;;2.72;1.17;;;;;;;2.79;100.00;99006.84;10380100;28;20068;-85
2022/02/25 19:33:49;;;;;;;3.10;1.23;;;;;;;2.83;100.00;99003.03;10378339;28;20049;-84
2022/02/25 19:38:54;;;;;;;3.70;1.20;;;;;;;2.85;100.00;99006.47;10388262;28;20536;-84
2022/02/25 19:43:58;;;;;;;6.38;1.40;;;;;;;2.83;100.00;99007.50;10411989;28;20516;-84
2022/02/25 19:49:02;;;;;;;3.75;1.50;;;;;;;2.84;100.00;99019.88;10396882;28;20520;-84
2022/02/25 19:54:07;;;;;;;2.97;1.30;;;;;;;2.81;100.00;99025.38;10404952;28;20034;-83
2022/02/25 19:59:11;;;;;;;4.18;1.35;;;;;;;2.80;100.00;99035.19;10391398;28;20464;-83
2022/02/25 20:04:35;;;;;;;3.75;1.40;;;;;;;2.80;100.00;99044.94;10404194;28;20069;-84
2022/02/25 20:09:38;;;;;;;2.47;1.15;;;;;;;2.84;100.00;99049.16;10410500;28;20063;-85
2022/02/25 20:14:42;;;;;;;4.68;1.30;;;;;;;2.77;100.00;99052.19;10396384;28;20512;-84
2022/02/25 20:19:45;;;;;;;4.55;1.30;;;;;;;2.75;100.00;99066.53;10400442;28;20061;-84
2022/02/25 20:24:49;;;;;;;4.90;1.45;;;;;;;2.72;100.00;99066.72;10398774;28;20601;-86
2022/02/25 20:29:54;;;;;;;4.07;1.35;;;;;;;2.75;100.00;99083.38;10398637;28;20034;-85
2022/02/25 20:34:59;;;;;;;2.13;0.98;;;;;;;2.77;100.00;99084.09;10415850;28;20085;-84
2022/02/25 20:40:03;;;;;;;6.15;1.50;;;;;;;2.81;100.00;99099.88;10398277;28;20049;-86
2022/02/25 20:45:08;;;;;;;4.32;1.48;;;;;;;2.76;100.00;99101.03;10392128;28;20049;-85
2022/02/25 20:50:15;;;;;;;4.57;1.50;;;;;;;2.78;100.00;99128.41;10388109;28;20097;-85
2022/02/25 20:55:18;;;;;;;3.67;1.30;;;;;;;2.76;100.00;99126.78;10389609;28;20065;-86
2022/02/25 21:00:37;;;;;;;6.20;1.27;;;;;;;2.76;100.00;99135.63;10397733;28;20053;-84
2022/02/25 21:05:40;;;;;;;3.38;1.10;;;;;;;2.77;100.00;99147.97;10402718;28;20490;-87
2022/02/25 21:10:44;;;;;;;4.65;1.33;;;;;;;2.77;100.00;99147.97;10392792;28;20053;-84
2022/02/25 21:15:50;;;;;;;5.80;1.38;;;;;;;2.76;100.00;99151.56;10401397;28;20056;-83
2022/02/25 21:20:55;;;;;;;7.75;1.58;;;;;;;2.76;100.00;99191.50;10385050;28;20412;-82
2022/02/25 21:25:59;;;;;;;5.95;1.38;;;;;;;2.77;100.00;99169.25;10398755;28;20133;-84
2022/02/25 21:31:08;;;;;;;4.90;1.40;;;;;;;2.76;100.00;99182.66;10392931;28;20494;-84
2022/02/25 21:36:12;;;;;;;6.22;1.48;;;;;;;2.80;100.00;99183.34;10410315;28;20057;-84
2022/02/25 21:41:16;;;;;;;4.07;1.35;;;;;;;2.77;100.00;99190.53;10389269;28;20042;-84
2022/02/25 21:46:21;;;;;;;4.82;1.50;;;;;;;2.77;100.00;99206.50;10385172;28;20046;-85
2022/02/25 21:51:24;;;;;;;7.20;1.65;;;;;;;2.78;100.00;99205.56;10378877;22;20062;-78
2022/02/25 21:56:30;;;;;;;5.80;1.42;;;;;;;2.77;100.00;99211.00;10369569;28;20498;-78
2022/02/25 22:01:41;;;;;;;4.55;1.27;;;;;;;2.76;100.00;99225.25;10376221;28;20046;-78
2022/02/25 22:06:53;;;;;;;5.10;1.15;;;;;;;2.75;100.00;99219.09;10354575;28;21299;-80
2022/02/25 22:11:56;;;;;;;5.47;1.42;;;;;;;2.73;100.00;99226.28;10370642;28;20056;-78
2022/02/25 22:17:00;;;;;;;3.75;1.05;;;;;;;2.70;100.00;99239.78;10358475;28;20510;-78
2022/02/25 22:22:04;;;;;;;5.68;1.48;;;;;;;2.69;100.00;99253.19;10370960;28;20065;-78
2022/02/25 22:27:07;;;;;;;5.35;1.70;;;;;;;2.69;100.00;99251.38;10373974;28;20046;-77
2022/02/25 22:32:11;;;;;;;3.80;1.10;;;;;;;2.61;100.00;99261.59;10371409;28;20053;-77
2022/02/25 22:37:14;;;;;;;7.47;1.60;;;;;;;2.59;100.00;99266.16;10353943;28;20148;-77
2022/02/25 22:42:17;;;;;;;7.63;1.80;;;;;;;2.59;100.00;99280.31;10382015;28;20058;-79
2022/02/25 22:47:21;;;;;;;6.50;1.55;;;;;;;2.57;100.00;99289.31;10356762;28;20054;-78
2022/02/25 23:03:07;;;;;;;9.03;1.70;;;;;;;2.55;100.00;99309.84;10369088;28;20528;-78
2022/02/25 23:08:11;;;;;;;8.48;1.92;;;;;;;2.47;100.00;99313.81;10356506;28;20128;-78
2022/02/25 23:13:14;;;;;;;8.88;2.05;;;;;;;2.46;100.00;99324.53;10366558;28;20497;-77
2022/02/25 23:18:18;;;;;;;10.00;1.80;;;;;;;2.49;100.00;99318.19;10373201;28;20045;-79
2022/02/25 23:23:22;;;;;;;7.30;1.63;;;;;;;2.41;100.00;99322.13;10355439;28;20065;-78
2022/02/25 23:28:25;;;;;;;8.93;1.90;;;;;;;2.38;100.00;99343.59;10370793;28;20158;-77
2022/02/25 23:33:31;;;;;;;10.75;1.98;;;;;;;2.41;100.00;99345.22;10370065;28;20085;-79
2022/02/25 23:38:34;;;;;;;8.98;1.80;;;;;;;2.39;100.00;99349.75;10347366;28;20499;-78
2022/02/25 23:43:37;;;;;;;8.07;1.55;;;;;;;2.40;100.00;99352.34;10374067;28;20487;-78
2022/02/25 23:48:41;;;;;;;9.77;2.13;;;;;;;2.40;100.00;99356.78;10349106;28;20058;-77
2022/02/25 23:53:44;;;;;;;6.90;1.73;;;;;;;2.27;100.00;99348.66;10347412;28;20054;-78
2022/02/25 23:58:47;;;;;;;10.45;1.90;;;;;;;2.13;100.00;99350.28;10364242;28;20061;-78
